sensor_id;sensor_type;location;lat;lon;timestamp;temperature;humidity
52513;DHT22;38422;53.172;6.974;2023-09-19T00:00:38;16.30;99.90
52513;DHT22;38422;53.172;6.974;2023-09-19T00:03:06;16.30;99.90
52513;DHT22;38422;53.172;6.974;2023-09-19T00:05:35;16.20;99.90
52513;DHT22;38422;53.172;6.974;2023-09-19T00:08:01;16.20;99.90
52513;DHT22;38422;53.172;6.974;2023-09-19T00:10:31;16.20;99.90
52513;DHT22;38422;53.172;6.974;2023-09-19T00:12:57;16.10;99.90
52513;DHT22;38422;53.172;6.974;2023-09-19T00:15:27;16.10;99.90
52513;DHT22;38422;53.172;6.974;2023-09-19T00:17:56;16.00;99.90
52513;DHT22;38422;53.172;6.974;2023-09-19T00:20:22;16.00;99.90
52513;DHT22;38422;53.172;6.974;2023-09-19T00:22:49;16.00;99.90
52513;DHT22;38422;53.172;6.974;2023-09-19T00:25:19;15.90;99.90
52513;DHT22;38422;53.172;6.974;2023-09-19T00:27:48;15.80;99.90
52513;DHT22;38422;53.172;6.974;2023-09-19T00:30:17;15.80;99.90
52513;DHT22;38422;53.172;6.974;2023-09-19T00:32:50;15.80;99.90
52513;DHT22;38422;53.172;6.974;2023-09-19T00:35:18;15.70;99.90
52513;DHT22;38422;53.172;6.974;2023-09-19T00:37:49;15.70;99.90
52513;DHT22;38422;53.172;6.974;2023-09-19T00:40:15;15.70;99.90
52513;DHT22;38422;53.172;6.974;2023-09-19T00:42:43;15.60;99.90
52513;DHT22;38422;53.172;6.974;2023-09-19T00:45:09;15.50;99.90
52513;DHT22;38422;53.172;6.974;2023-09-19T00:47:39;15.50;99.90
52513;DHT22;38422;53.172;6.974;2023-09-19T00:50:08;15.40;99.90
52513;DHT22;38422;53.172;6.974;2023-09-19T00:52:35;15.50;99.90
52513;DHT22;38422;53.172;6.974;2023-09-19T00:55:08;15.50;99.90
52513;DHT22;38422;53.172;6.974;2023-09-19T00:57:35;15.40;99.90
52513;DHT22;38422;53.172;6.974;2023-09-19T01:00:02;15.40;99.90
52513;DHT22;38422;53.172;6.974;2023-09-19T01:02:33;15.40;99.90
52513;DHT22;38422;53.172;6.974;2023-09-19T01:04:59;15.30;99.90
52513;DHT22;38422;53.172;6.974;2023-09-19T01:07:27;15.30;99.90
52513;DHT22;38422;53.172;6.974;2023-09-19T01:09:59;15.30;99.90
52513;DHT22;38422;53.172;6.974;2023-09-19T01:18:31;15.30;99.90
52513;DHT22;38422;53.172;6.974;2023-09-19T01:26:11;15.10;99.90
52513;DHT22;38422;53.172;6.974;2023-09-19T01:31:32;15.00;99.90
52513;DHT22;38422;53.172;6.974;2023-09-19T01:34:02;15.00;99.90
52513;DHT22;38422;53.172;6.974;2023-09-19T01:36:35;15.00;99.90
52513;DHT22;38422;53.172;6.974;2023-09-19T01:39:06;15.00;99.90
52513;DHT22;38422;53.172;6.974;2023-09-19T01:41:47;15.00;99.90
52513;DHT22;38422;53.172;6.974;2023-09-19T01:44:36;14.90;99.90
52513;DHT22;38422;53.172;6.974;2023-09-19T01:47:17;14.90;99.90
52513;DHT22;38422;53.172;6.974;2023-09-19T01:49:59;14.80;99.90
52513;DHT22;38422;53.172;6.974;2023-09-19T01:52:31;14.80;99.90
52513;DHT22;38422;53.172;6.974;2023-09-19T01:55:06;14.80;99.90
52513;DHT22;38422;53.172;6.974;2023-09-19T01:58:14;14.80;99.90
52513;DHT22;38422;53.172;6.974;2023-09-19T02:00:32;14.80;99.90
52513;DHT22;38422;53.172;6.974;2023-09-19T02:02:59;14.70;99.90
52513;DHT22;38422;53.172;6.974;2023-09-19T02:05:25;14.70;99.90
52513;DHT22;38422;53.172;6.974;2023-09-19T02:07:52;14.70;99.90
52513;DHT22;38422;53.172;6.974;2023-09-19T02:10:22;14.70;99.90
52513;DHT22;38422;53.172;6.974;2023-09-19T02:12:48;14.70;99.90
52513;DHT22;38422;53.172;6.974;2023-09-19T02:15:15;14.70;99.90
52513;DHT22;38422;53.172;6.974;2023-09-19T02:17:42;14.70;99.90
52513;DHT22;38422;53.172;6.974;2023-09-19T02:20:10;14.60;99.90
52513;DHT22;38422;53.172;6.974;2023-09-19T02:22:36;14.60;99.90
52513;DHT22;38422;53.172;6.974;2023-09-19T02:25:02;14.50;99.90
52513;DHT22;38422;53.172;6.974;2023-09-19T02:27:30;14.50;99.90
52513;DHT22;38422;53.172;6.974;2023-09-19T02:29:56;14.50;99.90
52513;DHT22;38422;53.172;6.974;2023-09-19T02:32:23;14.50;99.90
52513;DHT22;38422;53.172;6.974;2023-09-19T02:34:48;14.50;99.90
52513;DHT22;38422;53.172;6.974;2023-09-19T02:37:17;14.40;99.90
52513;DHT22;38422;53.172;6.974;2023-09-19T02:39:44;14.40;99.90
52513;DHT22;38422;53.172;6.974;2023-09-19T02:42:10;14.40;99.90
52513;DHT22;38422;53.172;6.974;2023-09-19T02:44:35;14.40;99.90
52513;DHT22;38422;53.172;6.974;2023-09-19T02:47:01;14.40;99.90
52513;DHT22;38422;53.172;6.974;2023-09-19T02:49:27;14.40;99.90
52513;DHT22;38422;53.172;6.974;2023-09-19T02:51:52;14.40;99.90
52513;DHT22;38422;53.172;6.974;2023-09-19T02:54:18;14.40;99.90
52513;DHT22;38422;53.172;6.974;2023-09-19T02:56:44;14.30;99.90
52513;DHT22;38422;53.172;6.974;2023-09-19T02:59:10;14.40;99.90
52513;DHT22;38422;53.172;6.974;2023-09-19T03:01:36;14.30;99.90
52513;DHT22;38422;53.172;6.974;2023-09-19T03:04:05;14.30;99.90
52513;DHT22;38422;53.172;6.974;2023-09-19T03:06:31;14.30;99.90
52513;DHT22;38422;53.172;6.974;2023-09-19T03:08:58;14.20;99.90
52513;DHT22;38422;53.172;6.974;2023-09-19T03:11:25;14.20;99.90
52513;DHT22;38422;53.172;6.974;2023-09-19T03:13:52;14.10;99.90
52513;DHT22;38422;53.172;6.974;2023-09-19T03:16:19;14.20;99.90
52513;DHT22;38422;53.172;6.974;2023-09-19T03:18:50;14.20;99.90
52513;DHT22;38422;53.172;6.974;2023-09-19T03:21:16;14.10;99.90
52513;DHT22;38422;53.172;6.974;2023-09-19T03:23:43;14.20;99.90
52513;DHT22;38422;53.172;6.974;2023-09-19T03:26:14;14.10;99.90
52513;DHT22;38422;53.172;6.974;2023-09-19T03:28:41;14.10;99.90
52513;DHT22;38422;53.172;6.974;2023-09-19T03:31:08;14.20;99.90
52513;DHT22;38422;53.172;6.974;2023-09-19T03:33:34;14.10;99.90
52513;DHT22;38422;53.172;6.974;2023-09-19T03:36:01;14.10;99.90
52513;DHT22;38422;53.172;6.974;2023-09-19T03:38:30;14.10;99.90
52513;DHT22;38422;53.172;6.974;2023-09-19T03:40:57;14.10;99.90
52513;DHT22;38422;53.172;6.974;2023-09-19T03:43:22;14.10;99.90
52513;DHT22;38422;53.172;6.974;2023-09-19T03:45:48;14.10;99.90
52513;DHT22;38422;53.172;6.974;2023-09-19T03:48:14;14.10;99.90
52513;DHT22;38422;53.172;6.974;2023-09-19T03:50:40;14.10;99.90
52513;DHT22;38422;53.172;6.974;2023-09-19T03:53:06;14.10;99.90
52513;DHT22;38422;53.172;6.974;2023-09-19T03:55:34;14.10;99.90
52513;DHT22;38422;53.172;6.974;2023-09-19T03:58:04;14.10;99.90
52513;DHT22;38422;53.172;6.974;2023-09-19T04:00:30;14.00;99.90
52513;DHT22;38422;53.172;6.974;2023-09-19T04:02:56;14.00;99.90
52513;DHT22;38422;53.172;6.974;2023-09-19T04:05:25;14.00;99.90
52513;DHT22;38422;53.172;6.974;2023-09-19T04:07:51;14.00;99.90
52513;DHT22;38422;53.172;6.974;2023-09-19T04:10:17;13.90;99.90
52513;DHT22;38422;53.172;6.974;2023-09-19T04:12:55;14.00;99.90
52513;DHT22;38422;53.172;6.974;2023-09-19T04:15:22;13.90;99.90
52513;DHT22;38422;53.172;6.974;2023-09-19T04:17:49;13.90;99.90
52513;DHT22;38422;53.172;6.974;2023-09-19T04:20:16;13.90;99.90
52513;DHT22;38422;53.172;6.974;2023-09-19T04:22:43;13.90;99.90
52513;DHT22;38422;53.172;6.974;2023-09-19T04:25:09;14.00;99.90
52513;DHT22;38422;53.172;6.974;2023-09-19T04:27:34;14.00;99.90
52513;DHT22;38422;53.172;6.974;2023-09-19T04:30:00;14.00;99.90
52513;DHT22;38422;53.172;6.974;2023-09-19T04:32:29;14.00;99.90
52513;DHT22;38422;53.172;6.974;2023-09-19T04:34:55;14.00;99.90
52513;DHT22;38422;53.172;6.974;2023-09-19T04:37:25;14.00;99.90
52513;DHT22;38422;53.172;6.974;2023-09-19T04:39:51;14.00;99.90
52513;DHT22;38422;53.172;6.974;2023-09-19T04:42:17;14.00;99.90
52513;DHT22;38422;53.172;6.974;2023-09-19T04:44:43;14.00;99.90
52513;DHT22;38422;53.172;6.974;2023-09-19T04:47:08;14.00;99.90
52513;DHT22;38422;53.172;6.974;2023-09-19T04:49:34;14.00;99.90
52513;DHT22;38422;53.172;6.974;2023-09-19T04:52:00;14.00;99.90
52513;DHT22;38422;53.172;6.974;2023-09-19T04:54:26;14.00;99.90
52513;DHT22;38422;53.172;6.974;2023-09-19T04:56:52;14.00;99.90
52513;DHT22;38422;53.172;6.974;2023-09-19T04:59:18;14.00;99.90
52513;DHT22;38422;53.172;6.974;2023-09-19T05:01:43;14.00;99.90
52513;DHT22;38422;53.172;6.974;2023-09-19T05:04:09;14.00;99.90
52513;DHT22;38422;53.172;6.974;2023-09-19T05:06:35;14.10;99.90
52513;DHT22;38422;53.172;6.974;2023-09-19T05:09:01;14.10;99.90
52513;DHT22;38422;53.172;6.974;2023-09-19T05:11:27;14.00;99.90
52513;DHT22;38422;53.172;6.974;2023-09-19T05:13:55;14.10;99.90
52513;DHT22;38422;53.172;6.974;2023-09-19T05:16:21;14.10;99.90
52513;DHT22;38422;53.172;6.974;2023-09-19T05:18:47;14.10;99.90
52513;DHT22;38422;53.172;6.974;2023-09-19T05:21:13;14.10;99.90
52513;DHT22;38422;53.172;6.974;2023-09-19T05:23:38;14.10;99.90
52513;DHT22;38422;53.172;6.974;2023-09-19T05:26:04;14.10;99.90
52513;DHT22;38422;53.172;6.974;2023-09-19T05:28:30;14.10;99.90
52513;DHT22;38422;53.172;6.974;2023-09-19T05:31:02;14.10;99.90
52513;DHT22;38422;53.172;6.974;2023-09-19T05:33:28;14.10;99.90
52513;DHT22;38422;53.172;6.974;2023-09-19T05:35:56;14.10;99.90
52513;DHT22;38422;53.172;6.974;2023-09-19T05:38:21;14.10;99.90
52513;DHT22;38422;53.172;6.974;2023-09-19T05:40:48;14.10;99.90
52513;DHT22;38422;53.172;6.974;2023-09-19T05:43:14;14.10;99.90
52513;DHT22;38422;53.172;6.974;2023-09-19T05:45:40;14.10;99.90
52513;DHT22;38422;53.172;6.974;2023-09-19T05:48:13;14.10;99.90
52513;DHT22;38422;53.172;6.974;2023-09-19T05:50:40;14.10;99.90
52513;DHT22;38422;53.172;6.974;2023-09-19T05:53:06;14.10;99.90
52513;DHT22;38422;53.172;6.974;2023-09-19T05:55:32;14.10;99.90
52513;DHT22;38422;53.172;6.974;2023-09-19T05:57:58;14.20;99.90
52513;DHT22;38422;53.172;6.974;2023-09-19T06:00:26;14.20;99.90
52513;DHT22;38422;53.172;6.974;2023-09-19T06:02:53;14.20;99.90
52513;DHT22;38422;53.172;6.974;2023-09-19T06:05:20;14.20;99.90
52513;DHT22;38422;53.172;6.974;2023-09-19T06:07:46;14.20;99.90
52513;DHT22;38422;53.172;6.974;2023-09-19T06:10:12;14.20;99.90
52513;DHT22;38422;53.172;6.974;2023-09-19T06:12:47;14.20;99.90
52513;DHT22;38422;53.172;6.974;2023-09-19T06:15:14;14.20;99.90
52513;DHT22;38422;53.172;6.974;2023-09-19T06:17:51;14.20;99.90
52513;DHT22;38422;53.172;6.974;2023-09-19T06:20:21;14.20;99.90
52513;DHT22;38422;53.172;6.974;2023-09-19T06:22:49;14.30;99.90
52513;DHT22;38422;53.172;6.974;2023-09-19T06:25:16;14.30;99.90
52513;DHT22;38422;53.172;6.974;2023-09-19T06:27:53;14.30;99.90
52513;DHT22;38422;53.172;6.974;2023-09-19T06:30:21;14.30;99.90
52513;DHT22;38422;53.172;6.974;2023-09-19T06:32:48;14.30;99.90
52513;DHT22;38422;53.172;6.974;2023-09-19T06:35:15;14.30;99.90
52513;DHT22;38422;53.172;6.974;2023-09-19T06:37:42;14.30;99.90
52513;DHT22;38422;53.172;6.974;2023-09-19T06:40:08;14.30;99.90
52513;DHT22;38422;53.172;6.974;2023-09-19T06:42:44;14.40;99.90
52513;DHT22;38422;53.172;6.974;2023-09-19T06:45:14;14.40;99.90
52513;DHT22;38422;53.172;6.974;2023-09-19T06:47:48;14.40;99.90
52513;DHT22;38422;53.172;6.974;2023-09-19T06:50:21;14.40;99.90
52513;DHT22;38422;53.172;6.974;2023-09-19T06:52:57;14.40;99.90
52513;DHT22;38422;53.172;6.974;2023-09-19T06:55:26;14.50;99.90
52513;DHT22;38422;53.172;6.974;2023-09-19T06:57:54;14.40;99.90
52513;DHT22;38422;53.172;6.974;2023-09-19T07:00:22;14.40;99.90
52513;DHT22;38422;53.172;6.974;2023-09-19T07:02:56;14.50;99.90
52513;DHT22;38422;53.172;6.974;2023-09-19T07:05:22;14.50;99.90
52513;DHT22;38422;53.172;6.974;2023-09-19T07:07:48;14.50;99.90
52513;DHT22;38422;53.172;6.974;2023-09-19T07:10:14;14.50;99.90
52513;DHT22;38422;53.172;6.974;2023-09-19T07:12:40;14.50;99.90
52513;DHT22;38422;53.172;6.974;2023-09-19T07:15:07;14.60;99.90
52513;DHT22;38422;53.172;6.974;2023-09-19T07:17:33;14.60;99.90
52513;DHT22;38422;53.172;6.974;2023-09-19T07:19:59;14.60;99.90
52513;DHT22;38422;53.172;6.974;2023-09-19T07:22:28;14.60;99.90
52513;DHT22;38422;53.172;6.974;2023-09-19T07:24:54;14.70;99.90
52513;DHT22;38422;53.172;6.974;2023-09-19T07:27:20;14.70;99.90
52513;DHT22;38422;53.172;6.974;2023-09-19T07:29:45;14.80;99.90
52513;DHT22;38422;53.172;6.974;2023-09-19T07:32:11;14.80;99.90
52513;DHT22;38422;53.172;6.974;2023-09-19T07:34:37;14.90;99.90
52513;DHT22;38422;53.172;6.974;2023-09-19T07:37:06;14.90;99.90
52513;DHT22;38422;53.172;6.974;2023-09-19T07:39:31;14.90;99.90
52513;DHT22;38422;53.172;6.974;2023-09-19T07:41:57;15.00;99.90
52513;DHT22;38422;53.172;6.974;2023-09-19T07:44:23;15.00;99.90
52513;DHT22;38422;53.172;6.974;2023-09-19T07:46:51;15.00;99.90
52513;DHT22;38422;53.172;6.974;2023-09-19T07:49:17;15.00;99.90
52513;DHT22;38422;53.172;6.974;2023-09-19T07:51:44;15.00;99.90
52513;DHT22;38422;53.172;6.974;2023-09-19T07:54:12;15.10;99.90
52513;DHT22;38422;53.172;6.974;2023-09-19T07:56:39;15.10;99.90
52513;DHT22;38422;53.172;6.974;2023-09-19T07:59:05;15.20;99.90
52513;DHT22;38422;53.172;6.974;2023-09-19T08:01:30;15.30;99.90
52513;DHT22;38422;53.172;6.974;2023-09-19T08:03:57;15.30;99.90
52513;DHT22;38422;53.172;6.974;2023-09-19T08:06:22;15.30;99.90
52513;DHT22;38422;53.172;6.974;2023-09-19T08:08:51;15.40;99.90
52513;DHT22;38422;53.172;6.974;2023-09-19T08:11:20;15.40;99.90
52513;DHT22;38422;53.172;6.974;2023-09-19T08:13:47;15.40;99.90
52513;DHT22;38422;53.172;6.974;2023-09-19T08:16:15;15.30;99.90
52513;DHT22;38422;53.172;6.974;2023-09-19T08:18:41;15.40;99.90
52513;DHT22;38422;53.172;6.974;2023-09-19T08:21:07;15.40;99.90
52513;DHT22;38422;53.172;6.974;2023-09-19T08:23:37;15.40;99.90
52513;DHT22;38422;53.172;6.974;2023-09-19T08:26:04;15.40;99.90
52513;DHT22;38422;53.172;6.974;2023-09-19T08:28:34;15.50;99.90
52513;DHT22;38422;53.172;6.974;2023-09-19T08:31:04;15.60;99.90
52513;DHT22;38422;53.172;6.974;2023-09-19T08:33:32;15.70;99.90
52513;DHT22;38422;53.172;6.974;2023-09-19T08:35:58;15.70;99.90
52513;DHT22;38422;53.172;6.974;2023-09-19T08:38:24;15.80;99.90
52513;DHT22;38422;53.172;6.974;2023-09-19T08:40:51;15.80;99.90
52513;DHT22;38422;53.172;6.974;2023-09-19T08:43:17;15.90;99.90
52513;DHT22;38422;53.172;6.974;2023-09-19T08:45:42;15.90;99.90
52513;DHT22;38422;53.172;6.974;2023-09-19T08:50:52;16.10;99.90
52513;DHT22;38422;53.172;6.974;2023-09-19T08:53:50;16.20;99.90
52513;DHT22;38422;53.172;6.974;2023-09-19T08:56:18;16.20;99.90
52513;DHT22;38422;53.172;6.974;2023-09-19T08:58:57;16.30;99.90
52513;DHT22;38422;53.172;6.974;2023-09-19T09:01:24;16.40;99.90
52513;DHT22;38422;53.172;6.974;2023-09-19T09:03:53;16.40;99.90
52513;DHT22;38422;53.172;6.974;2023-09-19T09:06:22;16.40;99.90
52513;DHT22;38422;53.172;6.974;2023-09-19T09:08:50;16.50;99.90
52513;DHT22;38422;53.172;6.974;2023-09-19T09:11:17;16.50;99.90
52513;DHT22;38422;53.172;6.974;2023-09-19T09:13:47;16.50;99.90
52513;DHT22;38422;53.172;6.974;2023-09-19T09:16:13;16.60;99.90
52513;DHT22;38422;53.172;6.974;2023-09-19T09:18:43;16.60;99.90
52513;DHT22;38422;53.172;6.974;2023-09-19T09:21:10;16.70;99.90
52513;DHT22;38422;53.172;6.974;2023-09-19T09:23:36;16.80;99.90
52513;DHT22;38422;53.172;6.974;2023-09-19T09:26:01;16.80;99.90
52513;DHT22;38422;53.172;6.974;2023-09-19T09:28:34;16.80;99.90
52513;DHT22;38422;53.172;6.974;2023-09-19T09:31:01;16.90;99.90
52513;DHT22;38422;53.172;6.974;2023-09-19T09:33:30;17.00;99.90
52513;DHT22;38422;53.172;6.974;2023-09-19T09:36:01;17.20;99.90
52513;DHT22;38422;53.172;6.974;2023-09-19T09:38:29;17.30;99.90
52513;DHT22;38422;53.172;6.974;2023-09-19T09:40:59;17.30;99.90
52513;DHT22;38422;53.172;6.974;2023-09-19T09:43:36;17.30;99.90
52513;DHT22;38422;53.172;6.974;2023-09-19T09:46:13;17.20;99.90
52513;DHT22;38422;53.172;6.974;2023-09-19T09:54:25;17.80;99.90
52513;DHT22;38422;53.172;6.974;2023-09-19T09:57:07;18.00;99.90
52513;DHT22;38422;53.172;6.974;2023-09-19T10:00:09;18.10;99.90
52513;DHT22;38422;53.172;6.974;2023-09-19T10:02:38;18.30;99.90
52513;DHT22;38422;53.172;6.974;2023-09-19T10:05:21;18.40;99.90
52513;DHT22;38422;53.172;6.974;2023-09-19T10:07:48;18.30;99.90
52513;DHT22;38422;53.172;6.974;2023-09-19T10:10:36;18.20;99.90
52513;DHT22;38422;53.172;6.974;2023-09-19T10:13:08;18.20;99.90
52513;DHT22;38422;53.172;6.974;2023-09-19T10:15:38;18.20;99.90
52513;DHT22;38422;53.172;6.974;2023-09-19T10:18:07;18.30;99.90
52513;DHT22;38422;53.172;6.974;2023-09-19T10:20:45;18.40;99.90
52513;DHT22;38422;53.172;6.974;2023-09-19T10:23:12;18.40;99.90
52513;DHT22;38422;53.172;6.974;2023-09-19T10:25:40;18.40;99.90
52513;DHT22;38422;53.172;6.974;2023-09-19T10:28:07;18.50;99.90
52513;DHT22;38422;53.172;6.974;2023-09-19T10:30:46;18.60;99.90
52513;DHT22;38422;53.172;6.974;2023-09-19T10:33:21;18.70;99.90
52513;DHT22;38422;53.172;6.974;2023-09-19T10:35:49;18.80;99.90
52513;DHT22;38422;53.172;6.974;2023-09-19T10:38:22;18.80;99.90
52513;DHT22;38422;53.172;6.974;2023-09-19T10:40:53;18.90;99.90
52513;DHT22;38422;53.172;6.974;2023-09-19T10:43:21;18.90;99.90
52513;DHT22;38422;53.172;6.974;2023-09-19T10:45:49;19.00;99.90
52513;DHT22;38422;53.172;6.974;2023-09-19T10:48:17;19.00;99.90
52513;DHT22;38422;53.172;6.974;2023-09-19T10:56:17;19.20;99.90
52513;DHT22;38422;53.172;6.974;2023-09-19T10:58:44;19.40;99.90
52513;DHT22;38422;53.172;6.974;2023-09-19T11:01:11;19.50;99.90
52513;DHT22;38422;53.172;6.974;2023-09-19T11:03:43;19.70;99.90
52513;DHT22;38422;53.172;6.974;2023-09-19T11:06:17;19.70;99.90
52513;DHT22;38422;53.172;6.974;2023-09-19T11:09:03;19.60;99.90
52513;DHT22;38422;53.172;6.974;2023-09-19T11:11:43;19.60;99.90
52513;DHT22;38422;53.172;6.974;2023-09-19T11:36:08;19.20;99.90
52513;DHT22;38422;53.172;6.974;2023-09-19T11:46:27;19.20;99.90
52513;DHT22;38422;53.172;6.974;2023-09-19T11:48:54;19.20;99.90
52513;DHT22;38422;53.172;6.974;2023-09-19T11:51:24;19.40;99.90
52513;DHT22;38422;53.172;6.974;2023-09-19T11:53:55;19.60;99.90
52513;DHT22;38422;53.172;6.974;2023-09-19T11:56:25;19.50;99.90
52513;DHT22;38422;53.172;6.974;2023-09-19T11:58:56;19.40;99.90
52513;DHT22;38422;53.172;6.974;2023-09-19T12:01:33;19.20;99.90
52513;DHT22;38422;53.172;6.974;2023-09-19T12:04:02;19.20;99.90
52513;DHT22;38422;53.172;6.974;2023-09-19T12:06:30;19.30;99.90
52513;DHT22;38422;53.172;6.974;2023-09-19T12:08:58;19.30;99.90
52513;DHT22;38422;53.172;6.974;2023-09-19T12:11:31;19.30;99.90
52513;DHT22;38422;53.172;6.974;2023-09-19T12:14:01;19.20;99.90
52513;DHT22;38422;53.172;6.974;2023-09-19T12:16:28;19.20;99.90
52513;DHT22;38422;53.172;6.974;2023-09-19T12:18:57;19.20;99.90
52513;DHT22;38422;53.172;6.974;2023-09-19T12:26:42;19.00;99.90
52513;DHT22;38422;53.172;6.974;2023-09-19T12:29:17;18.90;99.90
52513;DHT22;38422;53.172;6.974;2023-09-19T12:31:53;18.90;99.90
52513;DHT22;38422;53.172;6.974;2023-09-19T12:34:24;19.00;99.90
52513;DHT22;38422;53.172;6.974;2023-09-19T12:37:22;19.00;99.90
52513;DHT22;38422;53.172;6.974;2023-09-19T12:39:49;19.00;99.90
52513;DHT22;38422;53.172;6.974;2023-09-19T12:42:19;18.80;99.90
52513;DHT22;38422;53.172;6.974;2023-09-19T12:44:47;18.70;99.90
52513;DHT22;38422;53.172;6.974;2023-09-19T12:47:16;18.70;99.90
52513;DHT22;38422;53.172;6.974;2023-09-19T12:50:14;18.60;99.90
52513;DHT22;38422;53.172;6.974;2023-09-19T12:52:46;18.50;99.90
52513;DHT22;38422;53.172;6.974;2023-09-19T12:58:56;18.50;99.90
52513;DHT22;38422;53.172;6.974;2023-09-19T13:01:24;18.70;99.90
52513;DHT22;38422;53.172;6.974;2023-09-19T13:04:21;18.90;99.90
52513;DHT22;38422;53.172;6.974;2023-09-19T13:06:55;19.00;99.90
52513;DHT22;38422;53.172;6.974;2023-09-19T13:09:26;18.90;99.90
52513;DHT22;38422;53.172;6.974;2023-09-19T13:12:05;19.00;99.90
52513;DHT22;38422;53.172;6.974;2023-09-19T13:14:32;19.00;99.90
52513;DHT22;38422;53.172;6.974;2023-09-19T13:17:06;19.00;99.90
52513;DHT22;38422;53.172;6.974;2023-09-19T13:19:49;18.90;99.90
52513;DHT22;38422;53.172;6.974;2023-09-19T13:22:37;18.80;99.90
52513;DHT22;38422;53.172;6.974;2023-09-19T13:25:14;18.70;99.90
52513;DHT22;38422;53.172;6.974;2023-09-19T13:27:44;18.60;99.90
52513;DHT22;38422;53.172;6.974;2023-09-19T13:30:11;18.60;99.90
52513;DHT22;38422;53.172;6.974;2023-09-19T13:32:37;18.50;99.90
52513;DHT22;38422;53.172;6.974;2023-09-19T13:35:04;18.50;99.90
52513;DHT22;38422;53.172;6.974;2023-09-19T13:37:32;18.40;99.90
52513;DHT22;38422;53.172;6.974;2023-09-19T13:39:59;18.40;99.90
52513;DHT22;38422;53.172;6.974;2023-09-19T13:42:25;18.40;99.90
52513;DHT22;38422;53.172;6.974;2023-09-19T13:44:55;18.40;99.90
52513;DHT22;38422;53.172;6.974;2023-09-19T13:47:21;18.40;99.90
52513;DHT22;38422;53.172;6.974;2023-09-19T13:49:50;18.30;99.90
52513;DHT22;38422;53.172;6.974;2023-09-19T13:52:20;18.30;99.90
52513;DHT22;38422;53.172;6.974;2023-09-19T13:54:47;18.30;99.90
52513;DHT22;38422;53.172;6.974;2023-09-19T13:57:12;18.30;99.90
52513;DHT22;38422;53.172;6.974;2023-09-19T13:59:39;18.30;99.90
52513;DHT22;38422;53.172;6.974;2023-09-19T14:02:05;18.30;99.90
52513;DHT22;38422;53.172;6.974;2023-09-19T14:04:31;18.20;99.90
52513;DHT22;38422;53.172;6.974;2023-09-19T14:06:57;18.20;99.90
52513;DHT22;38422;53.172;6.974;2023-09-19T14:09:24;18.10;99.90
52513;DHT22;38422;53.172;6.974;2023-09-19T14:11:50;18.10;99.90
52513;DHT22;38422;53.172;6.974;2023-09-19T14:14:18;18.10;99.90
52513;DHT22;38422;53.172;6.974;2023-09-19T14:16:46;18.00;99.90
52513;DHT22;38422;53.172;6.974;2023-09-19T14:19:11;18.00;99.90
52513;DHT22;38422;53.172;6.974;2023-09-19T14:21:39;18.00;99.90
52513;DHT22;38422;53.172;6.974;2023-09-19T14:24:05;18.00;99.90
52513;DHT22;38422;53.172;6.974;2023-09-19T14:26:35;18.10;99.90
52513;DHT22;38422;53.172;6.974;2023-09-19T14:29:04;18.10;99.90
52513;DHT22;38422;53.172;6.974;2023-09-19T14:31:29;18.20;99.90
52513;DHT22;38422;53.172;6.974;2023-09-19T14:33:56;18.20;99.90
52513;DHT22;38422;53.172;6.974;2023-09-19T14:36:22;18.30;99.90
52513;DHT22;38422;53.172;6.974;2023-09-19T14:38:52;18.30;99.90
52513;DHT22;38422;53.172;6.974;2023-09-19T14:41:19;18.40;99.90
52513;DHT22;38422;53.172;6.974;2023-09-19T14:43:45;18.40;99.90
52513;DHT22;38422;53.172;6.974;2023-09-19T14:46:11;18.40;99.90
52513;DHT22;38422;53.172;6.974;2023-09-19T14:48:37;18.50;99.90
52513;DHT22;38422;53.172;6.974;2023-09-19T14:51:04;18.50;99.90
52513;DHT22;38422;53.172;6.974;2023-09-19T14:53:33;18.50;99.90
52513;DHT22;38422;53.172;6.974;2023-09-19T14:56:02;18.60;99.90
52513;DHT22;38422;53.172;6.974;2023-09-19T14:58:31;18.60;99.90
52513;DHT22;38422;53.172;6.974;2023-09-19T15:01:08;18.50;99.90
52513;DHT22;38422;53.172;6.974;2023-09-19T15:03:36;18.50;99.90
52513;DHT22;38422;53.172;6.974;2023-09-19T15:06:07;18.50;99.90
52513;DHT22;38422;53.172;6.974;2023-09-19T15:08:36;18.50;99.90
52513;DHT22;38422;53.172;6.974;2023-09-19T15:11:09;18.50;99.90
52513;DHT22;38422;53.172;6.974;2023-09-19T15:13:36;18.50;99.90
52513;DHT22;38422;53.172;6.974;2023-09-19T15:16:06;18.50;99.90
52513;DHT22;38422;53.172;6.974;2023-09-19T15:18:36;18.50;99.90
52513;DHT22;38422;53.172;6.974;2023-09-19T15:21:13;18.50;99.90
52513;DHT22;38422;53.172;6.974;2023-09-19T15:23:41;18.50;99.90
52513;DHT22;38422;53.172;6.974;2023-09-19T15:26:09;18.50;99.90
52513;DHT22;38422;53.172;6.974;2023-09-19T15:28:37;18.50;99.90
52513;DHT22;38422;53.172;6.974;2023-09-19T15:31:07;18.50;99.90
52513;DHT22;38422;53.172;6.974;2023-09-19T15:33:34;18.50;99.90
52513;DHT22;38422;53.172;6.974;2023-09-19T15:36:04;18.50;99.90
52513;DHT22;38422;53.172;6.974;2023-09-19T15:38:31;18.50;99.90
52513;DHT22;38422;53.172;6.974;2023-09-19T15:41:00;18.40;99.90
52513;DHT22;38422;53.172;6.974;2023-09-19T15:43:26;18.30;99.90
52513;DHT22;38422;53.172;6.974;2023-09-19T15:45:52;18.20;99.90
52513;DHT22;38422;53.172;6.974;2023-09-19T15:48:18;18.10;99.90
52513;DHT22;38422;53.172;6.974;2023-09-19T15:50:47;18.10;99.90
52513;DHT22;38422;53.172;6.974;2023-09-19T15:53:12;18.00;99.90
52513;DHT22;38422;53.172;6.974;2023-09-19T15:55:39;18.00;99.90
52513;DHT22;38422;53.172;6.974;2023-09-19T15:58:09;17.90;99.90
52513;DHT22;38422;53.172;6.974;2023-09-19T16:00:39;17.80;99.90
52513;DHT22;38422;53.172;6.974;2023-09-19T16:03:06;17.80;99.90
52513;DHT22;38422;53.172;6.974;2023-09-19T16:05:36;17.80;99.90
52513;DHT22;38422;53.172;6.974;2023-09-19T16:08:06;17.80;99.90
52513;DHT22;38422;53.172;6.974;2023-09-19T16:10:38;17.80;99.90
52513;DHT22;38422;53.172;6.974;2023-09-19T16:13:04;17.80;99.90
52513;DHT22;38422;53.172;6.974;2023-09-19T16:15:30;17.80;99.90
52513;DHT22;38422;53.172;6.974;2023-09-19T16:17:55;17.90;99.90
52513;DHT22;38422;53.172;6.974;2023-09-19T16:20:24;17.90;99.90
52513;DHT22;38422;53.172;6.974;2023-09-19T16:22:49;17.90;99.90
52513;DHT22;38422;53.172;6.974;2023-09-19T16:25:17;17.90;99.90
52513;DHT22;38422;53.172;6.974;2023-09-19T16:27:43;17.90;99.90
52513;DHT22;38422;53.172;6.974;2023-09-19T16:30:09;18.00;99.90
52513;DHT22;38422;53.172;6.974;2023-09-19T16:32:35;18.00;99.90
52513;DHT22;38422;53.172;6.974;2023-09-19T16:35:02;18.00;99.90
52513;DHT22;38422;53.172;6.974;2023-09-19T16:37:28;18.00;99.90
52513;DHT22;38422;53.172;6.974;2023-09-19T16:39:54;18.00;99.90
52513;DHT22;38422;53.172;6.974;2023-09-19T16:42:20;18.00;99.90
52513;DHT22;38422;53.172;6.974;2023-09-19T16:44:46;18.00;99.90
52513;DHT22;38422;53.172;6.974;2023-09-19T16:47:12;17.90;99.90